Time;durP1;ratioP1;P1;durP2;ratioP2;P2;SDS_P1;SDS_P2;PMS_P1;PMS_P2;Temp;Humidity;BMP_temperature;BMP_pressure;BME280_temperature;BME280_humidity;BME280_pressure;Samples;Min_cycle;Max_cycle;Signal;HPM_P1;HPM_P2
2022/08/05 00:01:33;;;;;;;0.40;0.20;;;;;;;22.36;80.85;95424.16;5071624;28;20930;-61
2022/08/05 00:04:16;;;;;;;0.70;0.37;;;;;;;22.62;81.42;95444.25;5071611;28;20552;-61
2022/08/05 00:06:45;;;;;;;0.40;0.30;;;;;;;22.64;80.95;95444.69;5071653;28;20437;-61
2022/08/05 00:09:14;;;;;;;0.50;0.30;;;;;;;22.53;80.19;95430.06;5071622;28;20429;-62
2022/08/05 00:11:47;;;;;;;0.40;0.30;;;;;;;22.55;80.55;95438.63;5071920;28;20425;-61
2022/08/05 00:14:23;;;;;;;0.40;0.37;;;;;;;22.56;81.72;95436.72;5071631;28;20896;-62
2022/08/05 00:16:57;;;;;;;0.50;0.40;;;;;;;22.54;79.66;95438.97;5071273;28;20502;-62
2022/08/05 00:19:29;;;;;;;0.40;0.20;;;;;;;22.50;79.44;95436.16;5071529;28;20909;-62
2022/08/05 00:22:01;;;;;;;0.50;0.30;;;;;;;22.20;81.58;95386.28;5071759;28;20461;-63
2022/08/05 00:24:29;;;;;;;0.40;0.30;;;;;;;22.34;84.95;95423.72;5071486;28;21005;-62
2022/08/05 00:26:58;;;;;;;0.40;0.20;;;;;;;22.11;86.50;95428.81;5071461;28;20430;-62
2022/08/05 00:29:27;;;;;;;0.90;0.30;;;;;;;22.31;83.39;95432.50;5071417;28;20812;-62
2022/08/05 00:32:07;;;;;;;0.50;0.30;;;;;;;22.33;81.09;95422.94;5071691;28;20434;-62
2022/08/05 00:34:41;;;;;;;0.40;0.30;;;;;;;22.29;81.79;95418.56;5071548;28;20851;-62
2022/08/05 00:37:29;;;;;;;0.50;0.40;;;;;;;22.25;81.72;95421.13;5071272;28;20433;-63
2022/08/05 00:40:03;;;;;;;0.40;0.20;;;;;;;22.31;79.91;95419.78;5072654;28;20433;-61
2022/08/05 00:42:39;;;;;;;0.40;0.20;;;;;;;22.24;83.15;95418.78;5075014;28;20429;-63
2022/08/05 00:45:09;;;;;;;0.40;0.30;;;;;;;21.98;84.20;95390.25;5074837;28;20467;-62
2022/08/05 00:47:42;;;;;;;0.73;0.50;;;;;;;22.12;84.72;95422.28;5075234;28;20421;-63
2022/08/05 00:50:30;;;;;;;0.40;0.20;;;;;;;22.06;85.64;95413.63;5074823;28;20433;-62
2022/08/05 00:52:58;;;;;;;0.40;0.30;;;;;;;22.16;85.92;95415.09;5074852;28;20858;-62
2022/08/05 00:55:27;;;;;;;0.40;0.30;;;;;;;22.11;85.80;95410.69;5074479;28;20472;-62
2022/08/05 00:58:10;;;;;;;0.50;0.40;;;;;;;22.08;86.50;95413.28;5074753;28;20921;-62
2022/08/05 01:00:40;;;;;;;0.50;0.40;;;;;;;21.99;87.51;95418.00;5074710;28;20520;-63
2022/08/05 01:03:11;;;;;;;0.40;0.20;;;;;;;22.03;85.41;95411.63;5074965;28;20410;-63
2022/08/05 01:05:50;;;;;;;1.33;0.30;;;;;;;22.05;85.19;95416.66;5074507;28;20473;-63
2022/08/05 01:08:22;;;;;;;0.70;0.70;;;;;;;21.95;85.68;95419.81;5074873;28;20429;-64
2022/08/05 01:11:15;;;;;;;0.50;0.30;;;;;;;21.74;86.90;95416.41;5074796;28;20456;-63
2022/08/05 01:14:03;;;;;;;0.40;0.30;;;;;;;21.84;85.91;95421.34;5074491;28;20808;-63
2022/08/05 01:16:43;;;;;;;0.40;0.30;;;;;;;21.77;87.08;95405.75;5074515;28;20429;-64
2022/08/05 01:19:32;;;;;;;0.40;0.20;;;;;;;21.69;87.10;95393.16;5074318;28;20456;-64
2022/08/05 01:22:40;;;;;;;0.40;0.30;;;;;;;21.82;86.96;95423.59;5073558;28;20460;-64
2022/08/05 01:25:37;;;;;;;0.40;0.20;;;;;;;21.77;88.07;95416.53;5074167;28;20473;-65
2022/08/05 01:28:23;;;;;;;1.00;0.30;;;;;;;21.73;88.84;95422.94;5074136;28;20421;-64
2022/08/05 01:30:54;;;;;;;0.40;0.20;;;;;;;21.78;88.39;95422.72;5074049;28;20425;-64
2022/08/05 01:33:32;;;;;;;0.50;0.30;;;;;;;21.71;90.69;95422.47;5074024;28;20930;-64
2022/08/05 01:36:07;;;;;;;0.40;0.20;;;;;;;21.64;88.58;95411.47;5074289;28;20493;-65
2022/08/05 01:38:45;;;;;;;0.50;0.40;;;;;;;20.99;94.58;95418.50;5074017;28;20804;-65
2022/08/05 01:41:21;;;;;;;2.23;0.30;;;;;;;21.30;91.68;95423.47;5074211;28;20460;-65
2022/08/05 01:43:56;;;;;;;0.50;0.30;;;;;;;21.02;90.62;95353.19;5073973;28;20523;-65
2022/08/05 01:46:26;;;;;;;0.40;0.30;;;;;;;21.19;92.95;95422.28;5073638;28;20503;-65
2022/08/05 01:49:14;;;;;;;0.60;0.40;;;;;;;21.37;91.41;95418.28;5074043;28;20908;-65
2022/08/05 01:51:52;;;;;;;0.47;0.37;;;;;;;21.44;90.17;95423.91;5073000;28;20467;-66
2022/08/05 01:54:22;;;;;;;0.50;0.30;;;;;;;21.56;89.03;95425.84;5073791;28;20449;-66
2022/08/05 01:56:57;;;;;;;0.40;0.20;;;;;;;21.58;85.91;95423.59;5073609;28;20444;-66
2022/08/05 01:59:49;;;;;;;0.40;0.20;;;;;;;21.37;89.45;95427.19;5073501;28;20808;-67
2022/08/05 02:02:21;;;;;;;0.47;0.40;;;;;;;21.35;91.35;95429.41;5073461;28;20494;-66
2022/08/05 02:04:58;;;;;;;0.40;0.20;;;;;;;21.06;91.57;95385.66;5073433;28;20460;-66
2022/08/05 02:07:27;;;;;;;0.50;0.30;;;;;;;21.38;91.27;95415.25;5073826;28;20536;-66
2022/08/05 02:09:58;;;;;;;0.50;0.30;;;;;;;21.46;89.84;95416.28;5073600;28;20424;-66
2022/08/05 02:12:34;;;;;;;0.40;0.30;;;;;;;21.44;90.79;95423.91;5073306;28;20521;-66
2022/08/05 02:15:09;;;;;;;0.40;0.30;;;;;;;21.45;89.15;95422.81;5073290;28;20417;-66
2022/08/05 02:17:45;;;;;;;0.50;0.30;;;;;;;21.39;90.22;95416.84;5073134;28;20535;-67
2022/08/05 02:20:40;;;;;;;0.40;0.20;;;;;;;21.17;92.70;95422.63;5073062;28;20437;-67
2022/08/05 02:23:11;;;;;;;3.53;0.40;;;;;;;20.35;100.00;95431.56;5073162;28;20531;-67
2022/08/05 02:25:44;;;;;;;0.53;0.53;;;;;;;20.11;100.00;95428.72;5073285;28;20888;-68
2022/08/05 02:28:23;;;;;;;0.40;0.20;;;;;;;20.36;100.00;95421.59;5073286;28;20425;-67
2022/08/05 02:31:02;;;;;;;0.40;0.20;;;;;;;20.26;100.00;95422.78;5073005;28;20420;-68
2022/08/05 02:33:37;;;;;;;0.40;0.20;;;;;;;20.33;100.00;95423.03;5072356;28;20858;-68
2022/08/05 02:36:10;;;;;;;0.40;0.30;;;;;;;20.61;100.00;95426.00;5073303;28;20573;-67
2022/08/05 02:38:44;;;;;;;0.47;0.30;;;;;;;20.51;100.00;95423.69;5074027;28;20859;-68
2022/08/05 02:41:23;;;;;;;0.40;0.27;;;;;;;20.27;100.00;95419.75;5072970;28;20958;-69
2022/08/05 02:44:07;;;;;;;0.50;0.30;;;;;;;20.51;100.00;95399.47;5072747;28;20476;-69
2022/08/05 02:46:44;;;;;;;0.43;0.27;;;;;;;20.60;100.00;95409.03;5072320;28;20563;-69
2022/08/05 02:49:32;;;;;;;0.50;0.30;;;;;;;20.62;100.00;95412.19;5072592;28;20431;-69
2022/08/05 02:52:08;;;;;;;0.40;0.27;;;;;;;20.70;100.00;95418.59;5072503;28;20425;-69
2022/08/05 02:54:40;;;;;;;0.40;0.20;;;;;;;20.55;100.00;95420.00;5072650;28;20421;-69
2022/08/05 02:57:19;;;;;;;0.50;0.30;;;;;;;20.63;100.00;95413.78;5072549;28;20429;-69
2022/08/05 03:00:11;;;;;;;0.60;0.40;;;;;;;20.73;100.00;95416.06;5072111;28;20452;-70
2022/08/05 03:02:44;;;;;;;0.60;0.30;;;;;;;20.72;100.00;95414.47;5072508;28;20536;-70
2022/08/05 03:05:15;;;;;;;0.40;0.30;;;;;;;20.71;100.00;95412.13;5071322;28;20545;-70
2022/08/05 03:07:44;;;;;;;0.53;0.30;;;;;;;20.66;100.00;95413.13;5072197;28;20434;-70
2022/08/05 03:10:32;;;;;;;0.40;0.27;;;;;;;20.67;100.00;95419.28;5071877;28;20953;-71
2022/08/05 03:13:01;;;;;;;0.50;0.30;;;;;;;20.75;100.00;95415.72;5072262;28;20805;-71
2022/08/05 03:15:28;;;;;;;0.40;0.20;;;;;;;20.68;100.00;95412.78;5072232;28;20522;-70
2022/08/05 03:17:57;;;;;;;0.50;0.30;;;;;;;20.71;100.00;95420.19;5072032;28;20544;-70
2022/08/05 03:20:26;;;;;;;1.47;0.40;;;;;;;20.65;100.00;95413.44;5072137;28;20409;-70
2022/08/05 03:22:56;;;;;;;0.40;0.20;;;;;;;20.53;100.00;95410.69;5071905;28;20456;-71
2022/08/05 03:25:26;;;;;;;0.40;0.20;;;;;;;20.08;100.00;95341.34;5072144;28;20551;-71
2022/08/05 03:28:15;;;;;;;0.40;0.20;;;;;;;20.51;100.00;95418.31;5071561;28;20793;-69
2022/08/05 03:30:47;;;;;;;0.40;0.30;;;;;;;20.51;100.00;95415.63;5071911;28;20429;-69
2022/08/05 03:33:18;;;;;;;0.50;0.33;;;;;;;20.51;100.00;95418.31;5071959;28;20448;-68
2022/08/05 03:35:47;;;;;;;0.40;0.20;;;;;;;20.40;100.00;95419.81;5071527;28;20437;-68
2022/08/05 03:38:17;;;;;;;0.40;0.20;;;;;;;20.40;100.00;95417.13;5071972;28;20420;-68
2022/08/05 03:41:00;;;;;;;0.40;0.20;;;;;;;20.29;100.00;95413.25;5071983;28;20539;-68
2022/08/05 03:43:36;;;;;;;0.40;0.30;;;;;;;20.39;100.00;95404.78;5071793;28;20429;-69
2022/08/05 03:46:24;;;;;;;0.40;0.20;;;;;;;20.70;100.00;95419.41;5071417;28;21161;-51
2022/08/05 03:49:00;;;;;;;0.40;0.30;;;;;;;20.75;100.00;95415.72;5071476;28;20433;-51
2022/08/05 03:51:34;;;;;;;0.60;0.30;;;;;;;20.88;100.00;95422.72;5071465;28;20615;-51
2022/08/05 03:54:31;;;;;;;0.40;0.30;;;;;;;21.03;100.00;95419.41;5071251;28;20438;-51
2022/08/05 03:57:25;;;;;;;0.40;0.27;;;;;;;21.32;100.00;95432.78;5071416;28;20975;-51
2022/08/05 04:00:12;;;;;;;0.40;0.30;;;;;;;21.37;100.00;95429.88;5070675;28;20910;-51
2022/08/05 04:02:46;;;;;;;0.53;0.40;;;;;;;21.31;100.00;95427.72;5071031;28;20434;-51
2022/08/05 04:05:31;;;;;;;0.40;0.30;;;;;;;21.33;100.00;95428.94;5071054;28;20508;-51
2022/08/05 04:08:03;;;;;;;0.40;0.20;;;;;;;21.46;100.00;95427.06;5071106;28;20462;-49
2022/08/05 04:10:34;;;;;;;0.40;0.30;;;;;;;21.53;100.00;95421.91;5071560;28;20436;-49
2022/08/05 04:13:07;;;;;;;0.50;0.30;;;;;;;21.81;100.00;95422.03;5071230;28;20841;-50
2022/08/05 04:15:35;;;;;;;0.40;0.30;;;;;;;22.04;100.00;95423.97;5072799;28;20417;-51
2022/08/05 04:18:06;;;;;;;0.50;0.40;;;;;;;21.36;100.00;95430.19;5074624;28;20480;-50
2022/08/05 04:20:39;;;;;;;0.50;0.40;;;;;;;21.09;100.00;95431.59;5075067;28;20441;-51
2022/08/05 04:23:09;;;;;;;0.73;0.73;;;;;;;21.52;100.00;95423.03;5075116;28;20445;-51
2022/08/05 04:25:43;;;;;;;0.63;0.40;;;;;;;20.49;100.00;95432.09;5074989;28;20420;-50
2022/08/05 04:28:28;;;;;;;0.97;0.50;;;;;;;19.44;100.00;95380.31;5074787;28;20866;-49
2022/08/05 04:30:59;;;;;;;0.40;0.30;;;;;;;20.19;100.00;95425.16;5074820;28;20490;-49
2022/08/05 04:33:28;;;;;;;0.40;0.40;;;;;;;20.87;100.00;95426.56;5074919;28;20434;-51
2022/08/05 04:36:18;;;;;;;1.70;0.60;;;;;;;21.17;100.00;95422.63;5074635;28;20445;-51
2022/08/05 04:39:07;;;;;;;0.70;0.50;;;;;;;20.29;100.00;95432.88;5073815;28;20447;-53
2022/08/05 04:41:35;;;;;;;0.60;0.50;;;;;;;19.67;100.00;95429.25;5074673;28;20425;-53
2022/08/05 04:44:06;;;;;;;1.00;0.67;;;;;;;19.95;100.00;95433.06;5074644;28;20429;-53
2022/08/05 04:46:37;;;;;;;1.10;1.10;;;;;;;19.93;100.00;95432.59;5074378;28;20855;-53
2022/08/05 04:49:06;;;;;;;0.50;0.30;;;;;;;19.84;100.00;95429.94;5074768;28;20468;-53
2022/08/05 04:51:43;;;;;;;0.60;0.30;;;;;;;20.08;100.00;95419.38;5073971;28;20470;-53
2022/08/05 04:54:13;;;;;;;1.47;0.60;;;;;;;19.84;100.00;95426.47;5074601;28;20453;-52
2022/08/05 04:56:42;;;;;;;0.73;0.73;;;;;;;20.11;100.00;95426.00;5074227;28;20436;-52
2022/08/05 04:59:11;;;;;;;0.60;0.40;;;;;;;19.92;100.00;95429.13;5074372;28;20437;-54
2022/08/05 05:01:51;;;;;;;0.50;0.30;;;;;;;19.78;100.00;95422.41;5074597;28;20421;-53
2022/08/05 05:04:35;;;;;;;0.50;0.30;;;;;;;20.61;100.00;95410.63;5074100;28;20413;-53
2022/08/05 05:07:06;;;;;;;0.40;0.20;;;;;;;20.56;100.00;95410.03;5074057;28;21018;-53
2022/08/05 05:09:36;;;;;;;0.60;0.60;;;;;;;20.92;100.00;95420.16;5074103;28;20439;-54
2022/08/05 05:12:05;;;;;;;0.57;0.33;;;;;;;21.09;100.00;95414.63;5074177;28;20473;-54
2022/08/05 05:14:34;;;;;;;0.40;0.30;;;;;;;20.50;100.00;95419.41;5073723;28;20476;-54
2022/08/05 05:17:03;;;;;;;0.50;0.47;;;;;;;21.07;100.00;95406.91;5073417;28;20425;-54
2022/08/05 05:19:38;;;;;;;0.40;0.20;;;;;;;21.53;100.00;95409.19;5074006;28;20538;-54
2022/08/05 05:22:15;;;;;;;0.40;0.30;;;;;;;21.55;100.00;95408.09;5073820;28;20445;-53
2022/08/05 05:24:53;;;;;;;0.40;0.30;;;;;;;21.72;100.00;95405.97;5073812;28;20508;-54
2022/08/05 05:27:28;;;;;;;0.40;0.30;;;;;;;21.93;100.00;95397.78;5072744;28;20529;-54
2022/08/05 05:30:14;;;;;;;4.00;0.60;;;;;;;22.11;100.00;95393.72;5073727;28;20830;-53
2022/08/05 05:33:01;;;;;;;0.50;0.30;;;;;;;22.33;98.02;95395.91;5073488;28;20437;-52
2022/08/05 05:35:45;;;;;;;0.50;0.40;;;;;;;22.55;97.06;95395.41;5073580;28;20855;-52
2022/08/05 05:38:17;;;;;;;0.40;0.30;;;;;;;22.79;91.27;95396.47;5073095;28;20932;-53
2022/08/05 05:40:55;;;;;;;0.40;0.30;;;;;;;22.89;91.32;95393.28;5073184;28;20475;-52
2022/08/05 05:43:24;;;;;;;0.50;0.40;;;;;;;22.39;97.63;95388.38;5072653;28;20525;-52
2022/08/05 05:46:12;;;;;;;0.90;0.70;;;;;;;22.10;95.79;95394.84;5072513;28;20441;-51
2022/08/05 05:48:45;;;;;;;0.80;0.80;;;;;;;21.56;100.00;95399.66;5073392;28;20437;-52
2022/08/05 05:51:20;;;;;;;1.33;1.23;;;;;;;21.48;100.00;95398.63;5073307;28;20424;-52
2022/08/05 05:53:52;;;;;;;0.90;0.90;;;;;;;21.65;100.00;95397.66;5072064;28;20421;-52
2022/08/05 05:56:28;;;;;;;0.97;0.97;;;;;;;21.46;100.00;95335.38;5072553;28;20918;-52
2022/08/05 05:59:02;;;;;;;0.50;0.40;;;;;;;22.53;100.00;95394.97;5072995;28;20440;-52
2022/08/05 06:01:33;;;;;;;0.60;0.50;;;;;;;22.27;99.67;95389.16;5072866;28;20790;-52
2022/08/05 06:04:07;;;;;;;0.80;0.80;;;;;;;22.11;100.00;95288.44;5072489;28;20429;-51
2022/08/05 06:06:39;;;;;;;0.50;0.40;;;;;;;22.55;90.29;95246.03;5072560;28;20874;-51
2022/08/05 06:09:10;;;;;;;0.57;0.40;;;;;;;23.46;86.71;95395.56;5072803;28;20433;-51
2022/08/05 06:11:52;;;;;;;0.53;0.50;;;;;;;23.85;85.29;95398.09;5072948;28;20442;-52
2022/08/05 06:14:30;;;;;;;0.50;0.40;;;;;;;23.87;84.61;95395.81;5072197;28;20468;-52
2022/08/05 06:16:58;;;;;;;0.80;0.80;;;;;;;23.28;83.85;95398.56;5072223;28;20467;-52
2022/08/05 06:19:46;;;;;;;1.70;1.37;;;;;;;23.38;83.62;95396.53;5072504;28;20451;-53
2022/08/05 06:22:28;;;;;;;0.97;0.80;;;;;;;24.25;80.33;95388.94;5072674;28;20823;-53
2022/08/05 06:24:58;;;;;;;0.50;0.30;;;;;;;24.70;74.96;95391.03;5072689;28;20986;-53
2022/08/05 06:27:27;;;;;;;1.30;1.20;;;;;;;24.70;72.10;95383.69;5072426;28;20507;-53
2022/08/05 06:30:15;;;;;;;0.60;0.50;;;;;;;24.39;75.08;95392.75;5072396;28;20440;-53
2022/08/05 06:32:48;;;;;;;1.07;0.60;;;;;;;25.60;73.40;95383.09;5072702;28;20452;-52
2022/08/05 06:35:18;;;;;;;0.50;0.40;;;;;;;26.28;64.95;95380.28;5072670;28;20422;-52
2022/08/05 06:38:07;;;;;;;0.80;0.80;;;;;;;25.73;60.69;95383.66;5071418;28;20441;-52
2022/08/05 06:40:42;;;;;;;0.80;0.60;;;;;;;25.74;63.56;95379.81;5072199;28;20433;-53
2022/08/05 06:43:13;;;;;;;17.90;0.97;;;;;;;25.99;62.93;95381.00;5071106;28;20800;-52
2022/08/05 06:46:01;;;;;;;0.73;0.50;;;;;;;26.35;59.71;95371.44;5072087;28;20452;-53
2022/08/05 06:48:35;;;;;;;2.00;1.47;;;;;;;26.21;60.46;95366.59;5071974;28;20472;-53
2022/08/05 06:51:23;;;;;;;0.83;0.70;;;;;;;27.22;58.08;95373.69;5071839;28;20813;-53
2022/08/05 06:53:58;;;;;;;0.50;0.40;;;;;;;27.46;53.05;95369.63;5071331;28;20417;-54
2022/08/05 06:56:29;;;;;;;0.60;0.57;;;;;;;27.53;54.84;95358.78;5072023;28;20422;-54
2022/08/05 06:59:01;;;;;;;1.00;0.80;;;;;;;27.35;55.68;95364.06;5072324;28;20421;-54
2022/08/05 07:01:30;;;;;;;1.97;0.50;;;;;;;26.67;55.20;95363.69;5071612;28;20460;-54
2022/08/05 07:04:01;;;;;;;0.60;0.60;;;;;;;27.40;54.29;95360.25;5072065;28;20456;-54
2022/08/05 07:06:30;;;;;;;0.83;0.53;;;;;;;27.74;54.09;95358.97;5070696;28;20512;-54
2022/08/05 07:08:59;;;;;;;0.50;0.40;;;;;;;27.50;57.27;95348.69;5071226;28;20465;-55
2022/08/05 07:11:33;;;;;;;0.50;0.30;;;;;;;28.63;52.77;95350.25;5071925;28;20433;-54
2022/08/05 07:17:00;;;;;;;0.50;0.50;;;;;;;29.58;45.91;95344.22;5071412;28;20447;-54
2022/08/05 07:19:50;;;;;;;0.50;0.40;;;;;;;29.24;47.28;95346.56;5071396;28;20437;-53
2022/08/05 07:22:38;;;;;;;0.43;0.40;;;;;;;29.69;48.09;95353.22;5070944;28;20445;-55
2022/08/05 07:25:11;;;;;;;2.87;1.10;;;;;;;29.05;46.24;95346.84;5072266;28;20428;-55
2022/08/05 07:28:02;;;;;;;4.70;0.70;;;;;;;28.86;47.16;95344.47;5071239;28;20499;-54
2022/08/05 07:30:37;;;;;;;0.50;0.50;;;;;;;28.25;48.97;95327.06;5071071;28;20426;-54
2022/08/05 07:33:09;;;;;;;0.60;0.60;;;;;;;29.44;51.93;95344.22;5071118;28;20430;-54
2022/08/05 07:35:44;;;;;;;0.63;0.63;;;;;;;29.93;45.89;95338.00;5071781;28;20504;-54
2022/08/05 07:38:33;;;;;;;0.90;0.50;;;;;;;29.99;46.82;95331.75;5071617;28;20447;-55
2022/08/05 07:41:14;;;;;;;0.40;0.30;;;;;;;30.46;41.27;95330.47;5072054;28;20423;-54
2022/08/05 07:44:07;;;;;;;1.50;1.40;;;;;;;30.22;41.52;95338.72;5070340;28;20439;-55
2022/08/05 07:46:47;;;;;;;1.50;1.40;;;;;;;30.36;40.96;95271.13;5071407;28;20435;-54
2022/08/05 07:49:18;;;;;;;0.40;0.40;;;;;;;31.23;41.42;95323.88;5070803;28;20461;-55
2022/08/05 07:51:47;;;;;;;0.50;0.40;;;;;;;31.38;40.24;95319.84;5071125;28;20493;-55
2022/08/05 07:54:25;;;;;;;0.40;0.30;;;;;;;31.61;43.05;95313.84;5071917;28;20509;-55
2022/08/05 07:57:01;;;;;;;0.50;0.50;;;;;;;30.99;39.77;95324.03;5071889;28;20442;-55
2022/08/05 07:59:51;;;;;;;0.60;0.50;;;;;;;31.46;40.94;95317.09;5071501;28;20450;-55
2022/08/05 08:02:25;;;;;;;0.40;0.30;;;;;;;31.93;40.56;95308.84;5071752;28;20475;-56
2022/08/05 08:05:14;;;;;;;0.80;0.70;;;;;;;31.75;38.93;95307.47;5071475;28;20444;-56
2022/08/05 08:07:44;;;;;;;0.50;0.50;;;;;;;32.01;38.65;95309.59;5071302;28;21028;-63
2022/08/05 08:10:28;;;;;;;0.57;0.40;;;;;;;32.09;37.32;95316.56;5071780;28;20560;-61
2022/08/05 08:12:57;;;;;;;1.07;0.97;;;;;;;31.18;38.63;95313.34;5071733;28;20422;-61
2022/08/05 08:15:27;;;;;;;0.73;0.73;;;;;;;31.84;38.67;95286.63;5071385;28;20457;-60
2022/08/05 08:18:16;;;;;;;0.60;0.50;;;;;;;31.95;37.28;95308.47;5071044;28;20477;-60
2022/08/05 08:20:50;;;;;;;1.00;0.50;;;;;;;32.61;37.32;95300.72;5071348;28;20970;-60
2022/08/05 08:23:30;;;;;;;0.70;0.50;;;;;;;32.66;36.56;95302.25;5071440;28;20521;-60
2022/08/05 08:26:19;;;;;;;1.23;0.70;;;;;;;32.95;36.10;95298.69;5071329;28;20447;-61
2022/08/05 08:28:58;;;;;;;0.80;0.80;;;;;;;33.60;35.08;95291.88;5071266;28;20536;-61
2022/08/05 08:31:48;;;;;;;0.63;0.63;;;;;;;33.42;34.66;95285.84;5071169;28;20523;-61
2022/08/05 08:34:16;;;;;;;1.00;0.90;;;;;;;33.44;36.90;95272.50;5070873;28;20419;-60
2022/08/05 08:36:45;;;;;;;5.03;0.80;;;;;;;32.82;35.20;95289.47;5071282;28;20438;-61
2022/08/05 08:39:23;;;;;;;3.03;0.77;;;;;;;32.96;36.44;95289.28;5071680;28;20887;-60
2022/08/05 08:41:55;;;;;;;0.80;0.80;;;;;;;32.98;35.50;95284.16;5071099;28;20995;-60
2022/08/05 08:44:30;;;;;;;0.50;0.50;;;;;;;33.41;35.20;95258.81;5071025;28;20424;-61
2022/08/05 08:47:23;;;;;;;0.40;0.40;;;;;;;34.75;34.81;95267.38;5070898;28;20440;-61
2022/08/05 08:50:13;;;;;;;0.50;0.40;;;;;;;34.71;33.88;95197.84;5070982;28;20491;-60
2022/08/05 08:53:04;;;;;;;0.73;0.50;;;;;;;34.27;33.24;95262.44;5070993;28;20454;-60
2022/08/05 08:55:39;;;;;;;0.83;0.70;;;;;;;33.83;33.98;95267.13;5070815;28;20447;-60
2022/08/05 08:58:27;;;;;;;0.83;0.63;;;;;;;33.90;34.40;95266.25;5070476;28;20447;-61
2022/08/05 09:01:15;;;;;;;0.50;0.50;;;;;;;33.69;35.72;95266.59;5072376;28;20497;-59
2022/08/05 09:03:50;;;;;;;1.90;0.87;;;;;;;34.29;35.34;95260.03;5074512;28;20542;-60
2022/08/05 09:06:23;;;;;;;0.43;0.40;;;;;;;35.35;34.02;95252.25;5074729;28;20432;-60
2022/08/05 09:08:59;;;;;;;0.50;0.50;;;;;;;35.26;34.32;95244.59;5074372;28;20463;-60
2022/08/05 09:11:30;;;;;;;0.53;0.47;;;;;;;35.70;33.32;95232.09;5074250;28;20417;-60
2022/08/05 09:14:18;;;;;;;0.70;0.70;;;;;;;34.84;33.80;95235.28;5073981;28;20436;-60
2022/08/05 09:17:09;;;;;;;0.40;0.40;;;;;;;35.98;32.17;95234.09;5073759;28;20205;-60
2022/08/05 09:19:59;;;;;;;0.50;0.37;;;;;;;35.99;31.19;95224.63;5073931;28;20208;-60
2022/08/05 09:23:05;;;;;;;1.20;1.10;;;;;;;35.08;32.85;95222.97;5074031;28;20380;-60
2022/08/05 09:25:38;;;;;;;0.83;0.83;;;;;;;35.45;32.10;95201.59;5073828;28;20190;-61
2022/08/05 09:28:27;;;;;;;0.90;0.80;;;;;;;35.25;32.12;95214.69;5073040;28;20234;-60
2022/08/05 09:31:04;;;;;;;0.60;0.50;;;;;;;35.89;31.68;95219.38;5073061;28;20186;-60
2022/08/05 09:33:51;;;;;;;0.70;0.70;;;;;;;36.86;31.32;95209.50;5073412;28;20626;-60
2022/08/05 09:36:22;;;;;;;12.13;0.43;;;;;;;37.73;28.67;95211.88;5073860;28;20277;-60
2022/08/05 09:39:03;;;;;;;0.83;0.83;;;;;;;37.45;28.00;95205.31;5073471;28;20197;-60
2022/08/05 09:41:57;;;;;;;0.40;0.40;;;;;;;36.57;27.22;95210.81;5073815;28;20198;-60
2022/08/05 09:44:39;;;;;;;0.40;0.30;;;;;;;37.26;28.39;95200.81;5073703;28;20194;-60
2022/08/05 09:47:09;;;;;;;0.40;0.40;;;;;;;38.48;27.41;95192.22;5073160;28;20186;-60
2022/08/05 09:49:47;;;;;;;3.92;0.57;;;;;;;38.86;26.70;95191.22;5073370;28;20213;-60
2022/08/05 09:52:31;;;;;;;0.50;0.40;;;;;;;37.67;26.55;95191.56;5073185;28;20214;-61
2022/08/05 09:55:02;;;;;;;0.68;0.50;;;;;;;37.18;27.71;95191.19;5072633;28;20222;-61
2022/08/05 09:57:50;;;;;;;0.30;0.30;;;;;;;38.07;28.59;95190.56;5071839;28;20300;-60
2022/08/05 10:00:27;;;;;;;0.50;0.50;;;;;;;37.71;24.48;95178.38;5073354;28;20686;-61
2022/08/05 10:02:57;;;;;;;0.35;0.30;;;;;;;38.91;23.88;95179.53;5073077;28;20201;-60
2022/08/05 10:05:28;;;;;;;0.30;0.30;;;;;;;39.31;23.78;95156.13;5073349;28;20566;-60
2022/08/05 10:08:03;;;;;;;0.57;0.30;;;;;;;39.28;23.50;95175.66;5073012;28;20637;-61
2022/08/05 10:10:52;;;;;;;0.50;0.47;;;;;;;37.93;24.37;95151.53;5072369;28;20223;-62
2022/08/05 10:13:31;;;;;;;0.30;0.30;;;;;;;37.49;26.99;95162.53;5072458;28;20193;-62
2022/08/05 10:16:33;;;;;;;0.50;0.30;;;;;;;36.21;26.34;95131.00;5072423;28;20273;-60
2022/08/05 10:19:12;;;;;;;0.43;0.30;;;;;;;36.59;25.87;95161.44;5072526;28;20230;-60
2022/08/05 10:21:41;;;;;;;0.40;0.38;;;;;;;37.57;25.80;95165.81;5072549;28;20228;-60
2022/08/05 10:24:12;;;;;;;0.50;0.40;;;;;;;38.04;25.34;95143.63;5072706;28;20274;-60
2022/08/05 10:26:44;;;;;;;0.40;0.30;;;;;;;38.09;24.20;95154.88;5072503;28;20217;-61
2022/08/05 10:29:21;;;;;;;0.40;0.40;;;;;;;38.45;23.81;95151.59;5072367;28;20283;-61
2022/08/05 10:32:10;;;;;;;0.40;0.40;;;;;;;38.70;23.42;95145.09;5072108;28;20294;-60
2022/08/05 10:35:00;;;;;;;0.52;0.50;;;;;;;38.12;23.71;95151.22;5072100;28;20795;-61
2022/08/05 10:37:30;;;;;;;1.23;1.23;;;;;;;38.04;23.79;95141.63;5072432;28;20191;-62
2022/08/05 10:40:21;;;;;;;0.32;0.30;;;;;;;37.77;24.39;95154.47;5072483;28;20618;-61
2022/08/05 10:43:01;;;;;;;0.45;0.43;;;;;;;37.62;26.53;95148.66;5072420;28;20244;-61
2022/08/05 10:45:33;;;;;;;0.50;0.50;;;;;;;38.24;23.86;95143.28;5072429;28;20296;-61
2022/08/05 10:48:31;;;;;;;0.30;0.30;;;;;;;39.23;24.97;95132.69;5071914;28;20187;-61
2022/08/05 10:51:21;;;;;;;0.70;0.70;;;;;;;38.80;25.60;95132.84;5071926;28;20195;-60
2022/08/05 10:53:58;;;;;;;0.50;0.50;;;;;;;37.74;23.80;95127.69;5071800;28;20258;-60
2022/08/05 10:56:45;;;;;;;0.30;0.30;;;;;;;36.78;24.74;95127.31;5072160;28;20251;-60
2022/08/05 10:59:18;;;;;;;0.30;0.30;;;;;;;37.31;25.77;95134.66;5071618;28;20189;-61
2022/08/05 11:02:08;;;;;;;0.68;0.30;;;;;;;38.43;23.69;95123.56;5071806;28;20292;-61
2022/08/05 11:04:46;;;;;;;0.50;0.50;;;;;;;37.03;23.40;95121.78;5072179;28;20208;-61
2022/08/05 11:07:17;;;;;;;0.40;0.40;;;;;;;36.32;23.82;95131.47;5071183;28;20632;-61
2022/08/05 11:10:01;;;;;;;0.57;0.57;;;;;;;35.48;24.16;95123.53;5071476;28;20219;-61
2022/08/05 11:12:47;;;;;;;0.40;0.35;;;;;;;34.94;25.39;95126.84;5071074;28;20665;-62
2022/08/05 11:15:21;;;;;;;2.15;0.30;;;;;;;35.41;27.76;95123.72;5071858;28;20281;-62
2022/08/05 11:17:50;;;;;;;0.50;0.40;;;;;;;35.24;26.52;95114.72;5071412;28;20308;-62
2022/08/05 11:20:37;;;;;;;0.40;0.30;;;;;;;35.61;25.68;95121.63;5071616;28;20186;-62
2022/08/05 11:23:34;;;;;;;0.40;0.40;;;;;;;35.41;25.24;95120.97;5071785;28;20213;-62
2022/08/05 11:26:24;;;;;;;0.43;0.30;;;;;;;35.54;27.14;95121.84;5071125;28;20198;-62
2022/08/05 11:28:57;;;;;;;0.60;0.40;;;;;;;35.52;27.63;95121.47;5071695;28;20186;-62
2022/08/05 11:31:39;;;;;;;0.40;0.40;;;;;;;36.20;27.18;95118.44;5071352;28;20218;-62
2022/08/05 11:34:38;;;;;;;0.40;0.30;;;;;;;35.80;26.45;95117.94;5071262;28;20218;-61
2022/08/05 11:37:42;;;;;;;0.47;0.47;;;;;;;35.28;25.45;95114.63;5071612;28;20213;-61
2022/08/05 11:41:00;;;;;;;0.30;0.30;;;;;;;36.88;26.41;95117.91;5071294;28;20285;-61
2022/08/05 11:44:00;;;;;;;0.30;0.30;;;;;;;37.77;24.58;95093.59;5071453;28;20277;-62
2022/08/05 11:46:36;;;;;;;0.95;0.35;;;;;;;39.16;22.09;95101.69;5071558;28;20784;-61
2022/08/05 11:49:24;;;;;;;0.73;0.50;;;;;;;38.86;20.72;95103.31;5071233;28;20277;-61
2022/08/05 11:51:53;;;;;;;0.40;0.30;;;;;;;38.99;22.90;95103.19;5071559;28;20363;-61
2022/08/05 11:54:27;;;;;;;0.30;0.30;;;;;;;38.47;23.32;95090.19;5071670;28;20241;-61
2022/08/05 11:57:03;;;;;;;0.50;0.40;;;;;;;38.61;21.90;95095.94;5071328;28;20186;-61
2022/08/05 11:59:53;;;;;;;0.85;0.85;;;;;;;37.47;21.78;95095.06;5071271;28;20277;-61
2022/08/05 12:02:26;;;;;;;0.30;0.30;;;;;;;37.37;23.92;95096.91;5071078;28;20567;-61
2022/08/05 12:05:02;;;;;;;0.30;0.30;;;;;;;36.03;26.10;95078.31;5071429;28;20576;-61
2022/08/05 12:07:47;;;;;;;3.03;0.30;;;;;;;35.75;25.28;95092.91;5070558;28;20640;-64
2022/08/05 12:10:37;;;;;;;0.30;0.30;;;;;;;35.89;24.08;95034.56;5070757;28;20226;-62
2022/08/05 12:13:14;;;;;;;0.70;0.70;;;;;;;36.81;23.65;95060.88;5071012;28;20278;-63
2022/08/05 12:15:57;;;;;;;0.32;0.30;;;;;;;37.67;23.39;95086.44;5071064;28;20243;-61
2022/08/05 12:18:32;;;;;;;0.60;0.60;;;;;;;37.91;24.46;95085.56;5071102;28;20636;-62
2022/08/05 12:21:17;;;;;;;0.68;0.55;;;;;;;37.59;24.39;95082.38;5071308;28;20198;-63
2022/08/05 12:23:58;;;;;;;0.57;0.57;;;;;;;37.51;22.94;95079.88;5071068;28;20266;-60
2022/08/05 12:26:31;;;;;;;0.43;0.40;;;;;;;37.68;24.14;95079.69;5070965;28;20191;-60